Aviation Digital Data Service (ADDS)

Output produced by METARs form (0741 UTC 28 February 2017)
found at http://aviationweather.gov/adds/metars/
 
KHPN 280541Z 2806/0106 VRB02KT P6SM BKN080 
     FM281500 11003KT P6SM BKN070 
     FM281800 12004KT P6SM SCT040 BKN150 
     FM282200 12005KT P6SM BKN020 OVC040 
     FM010100 13005KT 3SM -RA BR BKN006 OVC010 
     FM010400 14005KT 1SM -RA BR OVC003